Time;durP1;ratioP1;P1;durP2;ratioP2;P2;SDS_P1;SDS_P2;PMS_P1;PMS_P2;Temp;Humidity;BMP_temperature;BMP_pressure;BME280_temperature;BME280_humidity;BME280_pressure;Samples;Min_cycle;Max_cycle;Signal;HPM_P1;HPM_P2
2023/08/04 00:00:16;;;;;;;193.30;55.60;;;;;;;;;;5053299;28;20454;-51
2023/08/04 00:02:42;;;;;;;194.07;56.05;;;;;;;;;;5053550;28;20784;-50
2023/08/04 00:05:08;;;;;;;193.77;55.65;;;;;;;;;;5053563;28;20234;-52
2023/08/04 00:07:35;;;;;;;191.52;55.05;;;;;;;;;;5052619;28;20657;-51
2023/08/04 00:10:01;;;;;;;193.43;56.33;;;;;;;;;;5053411;28;20185;-49
2023/08/04 00:12:27;;;;;;;191.47;54.47;;;;;;;;;;5053442;28;20649;-50
2023/08/04 00:14:53;;;;;;;191.77;54.55;;;;;;;;;;5053255;28;20405;-51
2023/08/04 00:17:19;;;;;;;192.87;56.17;;;;;;;;;;5053228;28;20215;-52
2023/08/04 00:19:44;;;;;;;192.13;55.47;;;;;;;;;;5052997;28;20411;-50
2023/08/04 00:22:10;;;;;;;191.77;55.50;;;;;;;;;;5052501;28;20445;-50
2023/08/04 00:24:36;;;;;;;191.37;55.37;;;;;;;;;;5053126;28;20909;-50
2023/08/04 00:27:03;;;;;;;192.23;55.27;;;;;;;;;;5053200;28;20408;-51
2023/08/04 00:29:29;;;;;;;190.85;53.78;;;;;;;;;;5052965;28;20900;-52
2023/08/04 00:31:55;;;;;;;192.30;55.28;;;;;;;;;;5053261;28;20189;-51
2023/08/04 00:34:21;;;;;;;194.60;56.55;;;;;;;;;;5053085;28;20222;-50
2023/08/04 00:36:47;;;;;;;191.57;54.67;;;;;;;;;;5051996;28;20550;-50
2023/08/04 00:39:16;;;;;;;188.93;53.33;;;;;;;;;;5050485;28;20781;-54
2023/08/04 00:41:42;;;;;;;192.70;54.95;;;;;;;;;;5052773;28;20203;-50
2023/08/04 00:44:09;;;;;;;192.30;54.67;;;;;;;;;;5052889;28;20660;-50
2023/08/04 00:46:36;;;;;;;190.38;56.38;;;;;;;;;;5052688;28;20170;-50
2023/08/04 00:49:02;;;;;;;190.82;54.83;;;;;;;;;;5052739;28;20204;-51
2023/08/04 00:51:31;;;;;;;191.60;55.92;;;;;;;;;;5051438;28;20209;-50
2023/08/04 00:53:58;;;;;;;190.15;53.80;;;;;;;;;;5050263;28;20213;-50
2023/08/04 00:56:24;;;;;;;192.98;55.70;;;;;;;;;;5052526;28;20217;-52
2023/08/04 00:58:50;;;;;;;192.13;55.70;;;;;;;;;;5052549;28;20245;-50
2023/08/04 01:01:16;;;;;;;190.10;54.67;;;;;;;;;;5052102;28;20430;-50
2023/08/04 01:03:42;;;;;;;191.27;55.78;;;;;;;;;;5051223;28;20512;-51
2023/08/04 01:06:13;;;;;;;190.13;54.75;;;;;;;;;;5051461;28;20163;-50
2023/08/04 01:08:42;;;;;;;189.77;54.75;;;;;;;;;;5044389;28;20173;-50
2023/08/04 01:11:10;;;;;;;190.60;55.13;;;;;;;;;;5048289;28;20627;-51
2023/08/04 01:13:37;;;;;;;194.60;57.40;;;;;;;;;;5052086;28;20177;-52
2023/08/04 01:16:04;;;;;;;193.88;57.90;;;;;;;;;;5052092;28;20684;-50
2023/08/04 01:18:30;;;;;;;190.95;54.95;;;;;;;;;;5051429;28;20290;-50
2023/08/04 01:21:00;;;;;;;191.98;55.03;;;;;;;;;;5051925;28;20221;-51
2023/08/04 01:23:26;;;;;;;192.95;55.30;;;;;;;;;;5052368;28;20186;-50
2023/08/04 01:25:53;;;;;;;189.67;53.97;;;;;;;;;;5052160;28;20586;-50
2023/08/04 01:28:20;;;;;;;189.85;53.50;;;;;;;;;;5051115;28;20776;-51
2023/08/04 01:30:47;;;;;;;190.57;54.60;;;;;;;;;;5044583;28;20591;-50
2023/08/04 01:33:16;;;;;;;190.38;54.08;;;;;;;;;;5051225;28;20671;-54
2023/08/04 01:35:42;;;;;;;191.07;54.50;;;;;;;;;;5051944;28;20584;-51
2023/08/04 01:38:09;;;;;;;190.77;54.10;;;;;;;;;;5048040;28;20197;-50
2023/08/04 01:40:37;;;;;;;190.52;54.85;;;;;;;;;;5051307;28;20194;-50
2023/08/04 01:43:04;;;;;;;191.15;54.47;;;;;;;;;;5051936;28;20669;-50
2023/08/04 01:45:30;;;;;;;191.50;55.35;;;;;;;;;;5051152;28;20280;-50
2023/08/04 01:47:56;;;;;;;191.77;55.60;;;;;;;;;;5052101;28;20647;-50
2023/08/04 01:50:22;;;;;;;194.27;57.67;;;;;;;;;;5051356;28;20454;-50
2023/08/04 01:52:48;;;;;;;191.27;55.90;;;;;;;;;;5047893;28;20413;-50
2023/08/04 01:55:14;;;;;;;193.50;56.53;;;;;;;;;;5051460;28;20411;-50
2023/08/04 01:57:40;;;;;;;189.82;54.42;;;;;;;;;;5051654;28;20205;-51
2023/08/04 02:00:07;;;;;;;191.70;54.97;;;;;;;;;;5050982;28;20197;-51
2023/08/04 02:02:33;;;;;;;191.70;54.30;;;;;;;;;;5051439;28;20409;-50
2023/08/04 02:04:59;;;;;;;190.47;54.00;;;;;;;;;;5051596;28;20184;-50
2023/08/04 02:07:25;;;;;;;192.80;55.67;;;;;;;;;;5051473;28;20422;-50
2023/08/04 02:09:52;;;;;;;196.70;59.30;;;;;;;;;;5051620;28;20787;-50
2023/08/04 02:12:18;;;;;;;189.95;54.17;;;;;;;;;;5051546;28;20169;-50
2023/08/04 02:14:44;;;;;;;191.38;53.92;;;;;;;;;;5050896;28;20667;-50
2023/08/04 02:17:12;;;;;;;190.23;54.10;;;;;;;;;;5051248;28;20204;-49
2023/08/04 02:19:38;;;;;;;192.30;54.55;;;;;;;;;;5051188;28;20409;-50
2023/08/04 02:22:04;;;;;;;191.73;54.83;;;;;;;;;;5051464;28;20234;-50
2023/08/04 02:24:30;;;;;;;191.85;55.40;;;;;;;;;;5051175;28;20164;-51
2023/08/04 02:26:56;;;;;;;191.27;54.47;;;;;;;;;;5051339;28;20174;-51
2023/08/04 02:29:22;;;;;;;192.18;55.35;;;;;;;;;;5050831;28;20928;-52
2023/08/04 02:31:48;;;;;;;191.43;54.30;;;;;;;;;;5051042;28;20204;-49
2023/08/04 02:34:14;;;;;;;192.03;54.77;;;;;;;;;;5051157;28;20415;-50
2023/08/04 02:36:40;;;;;;;192.15;55.22;;;;;;;;;;5051064;28;20443;-49
2023/08/04 02:39:05;;;;;;;189.70;53.97;;;;;;;;;;5046777;28;20251;-50
2023/08/04 02:41:33;;;;;;;194.00;55.72;;;;;;;;;;5053574;28;20461;-49
2023/08/04 02:44:00;;;;;;;191.30;55.20;;;;;;;;;;5055139;28;20646;-50
2023/08/04 02:46:26;;;;;;;191.43;54.65;;;;;;;;;;5055369;28;20168;-51
2023/08/04 02:48:52;;;;;;;190.73;53.65;;;;;;;;;;5055167;28;20179;-51
2023/08/04 02:51:18;;;;;;;191.65;55.05;;;;;;;;;;5049147;28;20218;-51
2023/08/04 02:53:47;;;;;;;191.60;54.27;;;;;;;;;;5055332;28;20256;-53
2023/08/04 02:56:14;;;;;;;192.25;54.53;;;;;;;;;;5054542;28;20833;-50
2023/08/04 02:58:41;;;;;;;191.60;54.22;;;;;;;;;;5046796;28;20561;-49
2023/08/04 03:01:07;;;;;;;190.23;53.70;;;;;;;;;;5054518;28;20206;-49
2023/08/04 03:03:33;;;;;;;192.90;55.70;;;;;;;;;;5054697;28;20262;-51
2023/08/04 03:06:00;;;;;;;190.48;54.25;;;;;;;;;;5054674;28;20406;-51
2023/08/04 03:08:26;;;;;;;189.32;52.85;;;;;;;;;;5054617;28;20196;-49
2023/08/04 03:10:52;;;;;;;190.98;54.53;;;;;;;;;;5054274;28;20287;-48
2023/08/04 03:13:18;;;;;;;190.77;53.70;;;;;;;;;;5054578;28;20178;-49
2023/08/04 03:15:44;;;;;;;192.27;55.23;;;;;;;;;;5054419;28;20186;-50
2023/08/04 03:18:12;;;;;;;190.37;53.17;;;;;;;;;;5054452;28;20552;-51
2023/08/04 03:20:39;;;;;;;191.57;55.20;;;;;;;;;;5054033;28;20414;-49
2023/08/04 03:23:05;;;;;;;189.63;53.58;;;;;;;;;;5054452;28;20163;-51
2023/08/04 03:25:32;;;;;;;192.70;54.72;;;;;;;;;;5054013;28;20670;-50
2023/08/04 03:27:58;;;;;;;191.73;55.72;;;;;;;;;;5054342;28;20178;-49
2023/08/04 03:30:24;;;;;;;190.77;54.10;;;;;;;;;;5053843;28;20575;-49
2023/08/04 03:32:49;;;;;;;192.70;54.90;;;;;;;;;;5054286;28;20418;-51
2023/08/04 03:35:15;;;;;;;190.73;54.70;;;;;;;;;;5053868;28;20413;-49
2023/08/04 03:37:41;;;;;;;190.93;54.27;;;;;;;;;;5054101;28;20537;-49
2023/08/04 03:40:08;;;;;;;191.13;54.50;;;;;;;;;;5053982;28;20414;-49
2023/08/04 03:42:35;;;;;;;192.82;56.53;;;;;;;;;;5054051;28;20499;-49
2023/08/04 03:45:02;;;;;;;191.27;54.63;;;;;;;;;;5054105;28;20686;-50
2023/08/04 03:47:29;;;;;;;191.63;54.33;;;;;;;;;;5054415;28;20182;-49
2023/08/04 03:49:56;;;;;;;193.52;56.30;;;;;;;;;;5046019;28;20202;-51
2023/08/04 03:52:22;;;;;;;191.73;54.63;;;;;;;;;;5053513;28;20182;-50
2023/08/04 03:54:47;;;;;;;191.67;54.30;;;;;;;;;;5050266;28;20183;-51
2023/08/04 03:57:13;;;;;;;189.00;53.60;;;;;;;;;;5053475;28;20972;-52
2023/08/04 03:59:39;;;;;;;192.27;55.70;;;;;;;;;;5053467;28;20886;-51
2023/08/04 04:02:07;;;;;;;190.17;53.77;;;;;;;;;;5054234;28;20891;-49
2023/08/04 04:04:33;;;;;;;189.63;52.88;;;;;;;;;;5048049;28;20459;-50
2023/08/04 04:07:00;;;;;;;190.63;54.33;;;;;;;;;;5053407;28;20171;-54
2023/08/04 04:09:26;;;;;;;192.45;54.83;;;;;;;;;;5053473;28;20462;-51
2023/08/04 04:11:52;;;;;;;191.40;54.27;;;;;;;;;;5053237;28;20297;-50
2023/08/04 04:14:18;;;;;;;192.00;54.07;;;;;;;;;;5048402;28;20416;-50
2023/08/04 04:16:43;;;;;;;192.20;54.57;;;;;;;;;;5053115;28;20463;-51
2023/08/04 04:19:09;;;;;;;191.80;54.80;;;;;;;;;;5053328;28;20411;-48
2023/08/04 04:21:35;;;;;;;191.77;54.27;;;;;;;;;;5052768;28;20425;-49
2023/08/04 04:24:02;;;;;;;191.60;54.77;;;;;;;;;;5053251;28;20407;-50
2023/08/04 04:26:29;;;;;;;192.27;54.83;;;;;;;;;;5053205;28;20418;-51
2023/08/04 04:28:55;;;;;;;191.32;54.42;;;;;;;;;;5053082;28;20176;-50
2023/08/04 04:31:22;;;;;;;194.07;55.50;;;;;;;;;;5052695;28;20203;-51
2023/08/04 04:33:48;;;;;;;192.25;54.90;;;;;;;;;;5052815;28;20414;-48
2023/08/04 04:36:15;;;;;;;192.13;53.57;;;;;;;;;;5053137;28;20172;-48
2023/08/04 04:38:41;;;;;;;191.23;53.72;;;;;;;;;;5052871;28;20507;-52
2023/08/04 04:41:07;;;;;;;190.00;54.10;;;;;;;;;;5056069;28;20192;-51
2023/08/04 04:43:33;;;;;;;191.67;55.77;;;;;;;;;;5052839;28;20915;-49
2023/08/04 04:45:59;;;;;;;191.63;55.20;;;;;;;;;;5051439;28;20406;-50
2023/08/04 04:48:25;;;;;;;190.37;53.97;;;;;;;;;;5052697;28;20785;-49
2023/08/04 04:50:52;;;;;;;189.43;53.97;;;;;;;;;;5052273;28;20528;-49
2023/08/04 04:53:18;;;;;;;190.32;53.95;;;;;;;;;;5052678;28;20407;-49
2023/08/04 04:55:44;;;;;;;188.57;53.05;;;;;;;;;;5053567;28;20167;-49
2023/08/04 04:58:12;;;;;;;189.77;54.00;;;;;;;;;;5056955;28;20191;-49
2023/08/04 05:00:39;;;;;;;190.18;53.97;;;;;;;;;;5052035;28;20521;-50
2023/08/04 05:03:08;;;;;;;191.13;55.55;;;;;;;;;;5052564;28;20202;-49
2023/08/04 05:05:34;;;;;;;189.55;53.92;;;;;;;;;;5050646;28;20172;-49
2023/08/04 05:08:00;;;;;;;188.77;53.75;;;;;;;;;;5052475;28;20678;-50
2023/08/04 05:10:26;;;;;;;191.07;54.57;;;;;;;;;;5052012;28;20198;-52
2023/08/04 05:12:52;;;;;;;190.52;53.83;;;;;;;;;;5052233;28;20483;-53
2023/08/04 05:15:18;;;;;;;190.82;54.88;;;;;;;;;;5052039;28;20172;-49
2023/08/04 05:17:44;;;;;;;190.17;54.27;;;;;;;;;;5052560;28;20564;-49
2023/08/04 05:20:11;;;;;;;189.27;53.33;;;;;;;;;;5053622;28;20437;-48
2023/08/04 05:22:37;;;;;;;190.93;53.80;;;;;;;;;;5048860;28;20437;-49
2023/08/04 05:25:07;;;;;;;190.17;53.67;;;;;;;;;;5057106;28;20191;-52
2023/08/04 05:27:33;;;;;;;190.88;54.67;;;;;;;;;;5051937;28;20420;-49
2023/08/04 05:30:00;;;;;;;190.57;54.85;;;;;;;;;;5057931;28;20481;-49
2023/08/04 05:32:26;;;;;;;188.15;52.88;;;;;;;;;;5053617;28;20275;-48
2023/08/04 05:34:52;;;;;;;191.52;54.72;;;;;;;;;;5052104;28;20442;-50
2023/08/04 05:37:18;;;;;;;191.77;55.07;;;;;;;;;;5054755;28;20208;-48
2023/08/04 05:39:44;;;;;;;191.87;54.97;;;;;;;;;;5046765;28;20910;-49
2023/08/04 05:42:11;;;;;;;192.83;56.67;;;;;;;;;;5051756;28;20937;-49
2023/08/04 05:44:37;;;;;;;192.13;56.03;;;;;;;;;;5052383;28;20416;-52
2023/08/04 05:47:03;;;;;;;189.30;53.20;;;;;;;;;;5051810;28;20172;-52
2023/08/04 05:49:31;;;;;;;191.40;55.33;;;;;;;;;;5051387;28;20417;-52
2023/08/04 05:51:59;;;;;;;191.13;55.47;;;;;;;;;;5054243;28;20175;-53
2023/08/04 05:54:25;;;;;;;190.73;54.85;;;;;;;;;;5053517;28;20176;-51
2023/08/04 05:56:51;;;;;;;190.00;53.90;;;;;;;;;;5051324;28;20656;-52
2023/08/04 05:59:17;;;;;;;190.77;55.50;;;;;;;;;;5051581;28;20447;-52
2023/08/04 06:01:43;;;;;;;189.90;54.30;;;;;;;;;;5049739;28;20860;-52
2023/08/04 06:04:08;;;;;;;191.07;55.00;;;;;;;;;;5051595;28;20595;-52
2023/08/04 06:06:36;;;;;;;192.03;56.47;;;;;;;;;;5052007;28;20409;-52
2023/08/04 06:09:02;;;;;;;189.98;55.47;;;;;;;;;;5046658;28;20411;-51
2023/08/04 06:11:28;;;;;;;190.43;55.45;;;;;;;;;;5049709;28;20240;-53
2023/08/04 06:13:55;;;;;;;191.83;57.30;;;;;;;;;;5054743;28;20258;-52
2023/08/04 06:16:21;;;;;;;190.00;54.97;;;;;;;;;;5056675;28;20419;-53
2023/08/04 06:18:47;;;;;;;189.20;54.10;;;;;;;;;;5053153;28;20579;-52
2023/08/04 06:21:13;;;;;;;191.50;55.70;;;;;;;;;;5054153;28;20434;-51
2023/08/04 06:23:45;;;;;;;191.40;55.17;;;;;;;;;;5056731;28;20409;-52
2023/08/04 06:26:11;;;;;;;193.52;56.88;;;;;;;;;;5049438;28;20499;-52
2023/08/04 06:28:37;;;;;;;194.27;57.77;;;;;;;;;;5058384;28;20266;-52
2023/08/04 06:31:03;;;;;;;193.07;57.90;;;;;;;;;;5056112;28;20487;-51
2023/08/04 06:33:29;;;;;;;195.70;58.90;;;;;;;;;;5056973;28;20409;-52
2023/08/04 06:35:55;;;;;;;192.47;56.27;;;;;;;;;;5056630;28;20253;-53
2023/08/04 06:38:21;;;;;;;192.27;55.30;;;;;;;;;;5051327;28;20460;-52
2023/08/04 06:40:46;;;;;;;191.17;55.87;;;;;;;;;;5049530;28;20438;-51
2023/08/04 06:43:12;;;;;;;193.70;57.93;;;;;;;;;;5056569;28;20518;-52
2023/08/04 06:45:38;;;;;;;194.37;56.80;;;;;;;;;;5057869;28;20411;-52
2023/08/04 06:48:04;;;;;;;191.57;55.57;;;;;;;;;;5058003;28;20438;-52
2023/08/04 06:50:33;;;;;;;193.18;56.28;;;;;;;;;;5057375;28;20456;-52
2023/08/04 06:53:01;;;;;;;191.45;55.97;;;;;;;;;;5057793;28;20175;-51
2023/08/04 06:55:27;;;;;;;191.80;55.90;;;;;;;;;;5057631;28;20189;-52
2023/08/04 06:57:52;;;;;;;193.77;57.37;;;;;;;;;;5056572;28;20205;-52
2023/08/04 07:00:19;;;;;;;194.60;58.42;;;;;;;;;;5057535;28;20543;-52
2023/08/04 07:02:47;;;;;;;193.23;55.17;;;;;;;;;;5057865;28;20258;-52
2023/08/04 07:05:13;;;;;;;193.50;56.78;;;;;;;;;;5057752;28;20412;-52
2023/08/04 07:07:39;;;;;;;192.60;56.57;;;;;;;;;;5057633;28;20254;-52
2023/08/04 07:10:05;;;;;;;192.73;56.67;;;;;;;;;;5057257;28;20508;-51
2023/08/04 07:12:31;;;;;;;194.52;57.70;;;;;;;;;;5056658;28;20257;-51
2023/08/04 07:14:58;;;;;;;193.45;56.95;;;;;;;;;;5054647;28;20194;-52
2023/08/04 07:17:24;;;;;;;195.15;57.70;;;;;;;;;;5052996;28;20640;-52
2023/08/04 07:19:50;;;;;;;198.30;61.67;;;;;;;;;;5057322;28;20710;-51
2023/08/04 07:22:16;;;;;;;193.93;57.30;;;;;;;;;;5057595;28;20402;-52
2023/08/04 07:24:43;;;;;;;194.27;57.60;;;;;;;;;;5054979;28;20772;-52
2023/08/04 07:27:11;;;;;;;195.52;59.00;;;;;;;;;;5053876;28;20473;-51
2023/08/04 07:29:37;;;;;;;192.65;56.20;;;;;;;;;;5054158;28;20181;-51
2023/08/04 07:32:03;;;;;;;194.93;57.65;;;;;;;;;;5054215;28;20180;-52
2023/08/04 07:34:30;;;;;;;193.77;57.20;;;;;;;;;;5054136;28;20185;-50
2023/08/04 07:36:56;;;;;;;195.32;58.03;;;;;;;;;;5053961;28;20559;-52
2023/08/04 07:39:22;;;;;;;194.65;58.08;;;;;;;;;;5053132;28;20676;-52
2023/08/04 07:41:48;;;;;;;190.37;55.50;;;;;;;;;;5053779;28;20304;-50
2023/08/04 07:44:13;;;;;;;194.20;58.30;;;;;;;;;;5054064;28;20496;-51
2023/08/04 07:46:39;;;;;;;193.57;58.50;;;;;;;;;;5054088;28;20415;-51
2023/08/04 07:49:05;;;;;;;194.07;59.03;;;;;;;;;;5054197;28;20411;-51
2023/08/04 07:51:31;;;;;;;196.90;60.10;;;;;;;;;;5053467;28;20554;-51
2023/08/04 07:53:57;;;;;;;192.30;55.37;;;;;;;;;;5052738;28;20415;-51
2023/08/04 07:56:23;;;;;;;192.73;56.73;;;;;;;;;;5053978;28;20422;-51
2023/08/04 07:58:49;;;;;;;193.97;58.87;;;;;;;;;;5053851;28;20469;-50
2023/08/04 08:01:15;;;;;;;195.40;59.83;;;;;;;;;;5053690;28;20490;-52
2023/08/04 08:03:41;;;;;;;193.67;57.90;;;;;;;;;;5053777;28;20907;-51
2023/08/04 08:06:07;;;;;;;192.73;56.80;;;;;;;;;;5053279;28;20409;-51
2023/08/04 08:08:33;;;;;;;194.27;59.43;;;;;;;;;;5052956;28;20415;-52
2023/08/04 08:11:02;;;;;;;195.33;59.33;;;;;;;;;;5053292;28;20500;-51
2023/08/04 08:13:28;;;;;;;193.80;59.38;;;;;;;;;;5049151;28;20798;-51
2023/08/04 08:15:54;;;;;;;194.57;58.53;;;;;;;;;;5053387;28;20181;-51
2023/08/04 08:18:21;;;;;;;193.97;59.80;;;;;;;;;;5061031;28;20451;-52
2023/08/04 08:20:48;;;;;;;193.30;56.90;;;;;;;;;;5046131;28;21022;-50
2023/08/04 08:23:14;;;;;;;193.27;57.27;;;;;;;;;;5050492;28;20230;-52
2023/08/04 08:25:41;;;;;;;196.10;59.97;;;;;;;;;;5052762;28;20404;-51
2023/08/04 08:28:07;;;;;;;196.43;61.13;;;;;;;;;;5057593;28;20187;-50
2023/08/04 08:30:33;;;;;;;193.93;57.63;;;;;;;;;;5057976;28;20448;-52
2023/08/04 08:32:59;;;;;;;195.70;58.60;;;;;;;;;;5061138;28;20420;-52
2023/08/04 08:35:25;;;;;;;193.87;57.67;;;;;;;;;;5052031;28;20424;-51
2023/08/04 08:37:51;;;;;;;193.40;56.77;;;;;;;;;;5052646;28;20571;-51
2023/08/04 08:40:19;;;;;;;195.23;60.90;;;;;;;;;;5052716;28;20488;-50
2023/08/04 08:42:45;;;;;;;193.50;58.40;;;;;;;;;;5053074;28;20492;-51
2023/08/04 08:45:11;;;;;;;193.00;57.57;;;;;;;;;;5052902;28;20409;-51
2023/08/04 08:47:38;;;;;;;194.83;59.33;;;;;;;;;;5052761;28;20417;-52
2023/08/04 08:50:06;;;;;;;195.67;60.63;;;;;;;;;;5052489;28;20543;-51
2023/08/04 08:52:36;;;;;;;196.47;60.63;;;;;;;;;;5052740;28;20822;-51
2023/08/04 08:55:02;;;;;;;194.50;60.10;;;;;;;;;;5056773;28;20405;-51
2023/08/04 08:57:28;;;;;;;192.77;58.13;;;;;;;;;;5052859;28;20471;-51
2023/08/04 08:59:57;;;;;;;197.27;60.30;;;;;;;;;;5057313;28;20201;-51
2023/08/04 09:02:23;;;;;;;198.77;63.03;;;;;;;;;;5053154;28;20397;-51
2023/08/04 09:04:49;;;;;;;198.33;61.73;;;;;;;;;;5052182;28;20434;-51
2023/08/04 09:07:15;;;;;;;195.87;61.67;;;;;;;;;;5051744;28;20928;-51
2023/08/04 09:09:41;;;;;;;195.90;60.87;;;;;;;;;;5052079;28;20409;-51
2023/08/04 09:12:08;;;;;;;193.47;58.27;;;;;;;;;;5052385;28;20420;-52
2023/08/04 09:14:49;;;;;;;192.50;58.13;;;;;;;;;;5052372;28;21030;-51
2023/08/04 09:17:28;;;;;;;194.93;60.43;;;;;;;;;;5051471;28;20329;-52
2023/08/04 09:19:54;;;;;;;197.80;63.40;;;;;;;;;;5052117;28;20479;-51
2023/08/04 09:22:20;;;;;;;192.23;57.63;;;;;;;;;;5052276;28;20936;-51
2023/08/04 09:25:12;;;;;;;193.63;58.13;;;;;;;;;;5052313;28;20897;-51
2023/08/04 09:27:39;;;;;;;192.77;57.77;;;;;;;;;;5048500;28;20414;-52
2023/08/04 09:30:09;;;;;;;193.80;59.10;;;;;;;;;;5047359;28;21028;-50
2023/08/04 09:32:41;;;;;;;195.27;60.20;;;;;;;;;;5051599;28;20793;-51
2023/08/04 09:35:08;;;;;;;195.60;60.53;;;;;;;;;;5050968;28;20420;-51
2023/08/04 09:37:34;;;;;;;193.35;58.47;;;;;;;;;;5047575;28;20470;-51
2023/08/04 09:40:03;;;;;;;196.83;60.53;;;;;;;;;;5051674;28;20271;-51
2023/08/04 09:42:29;;;;;;;195.20;60.77;;;;;;;;;;5052063;28;20405;-51
2023/08/04 09:44:56;;;;;;;194.27;57.87;;;;;;;;;;5051242;28;20406;-51
2023/08/04 09:47:28;;;;;;;194.63;59.60;;;;;;;;;;5051883;28;20496;-51
2023/08/04 09:49:55;;;;;;;197.37;63.50;;;;;;;;;;5050949;28;20202;-51
2023/08/04 09:52:21;;;;;;;193.35;57.88;;;;;;;;;;5051712;28;20428;-51
2023/08/04 09:54:47;;;;;;;196.70;61.17;;;;;;;;;;5051759;28;20178;-51
2023/08/04 09:57:14;;;;;;;196.83;62.07;;;;;;;;;;5051717;28;20471;-51
2023/08/04 09:59:41;;;;;;;199.13;65.07;;;;;;;;;;5044395;28;20409;-51
2023/08/04 10:02:07;;;;;;;196.97;62.83;;;;;;;;;;5044683;28;20409;-51
2023/08/04 10:04:33;;;;;;;198.07;63.23;;;;;;;;;;5048021;28;21005;-52
2023/08/04 10:07:00;;;;;;;196.30;61.23;;;;;;;;;;5052005;28;20445;-51
2023/08/04 10:09:27;;;;;;;196.90;61.53;;;;;;;;;;5051255;28;20404;-51
2023/08/04 10:11:53;;;;;;;196.90;61.87;;;;;;;;;;5050303;28;20568;-51
2023/08/04 10:14:19;;;;;;;198.97;63.47;;;;;;;;;;5050868;28;20441;-51
2023/08/04 10:16:46;;;;;;;195.30;60.27;;;;;;;;;;5051653;28;20816;-51
2023/08/04 10:19:13;;;;;;;196.93;61.23;;;;;;;;;;5051491;28;20461;-51
2023/08/04 10:21:39;;;;;;;197.00;62.27;;;;;;;;;;5042844;28;20994;-51
2023/08/04 10:24:06;;;;;;;196.93;61.33;;;;;;;;;;5051464;28;20470;-51
2023/08/04 10:26:34;;;;;;;196.20;61.50;;;;;;;;;;5050935;28;20410;-51
2023/08/04 10:29:11;;;;;;;195.82;60.15;;;;;;;;;;5051392;28;20798;-51
2023/08/04 10:31:52;;;;;;;198.43;63.37;;;;;;;;;;5051447;28;20586;-52
2023/08/04 10:34:28;;;;;;;200.47;67.97;;;;;;;;;;5048652;28;20886;-51
2023/08/04 10:36:54;;;;;;;197.00;62.30;;;;;;;;;;5045751;28;20465;-51
2023/08/04 10:39:30;;;;;;;195.03;60.13;;;;;;;;;;5044186;28;20503;-51
2023/08/04 10:41:57;;;;;;;198.77;65.07;;;;;;;;;;5050694;28;20546;-51
2023/08/04 10:44:28;;;;;;;196.97;63.67;;;;;;;;;;5051081;28;20409;-51
2023/08/04 10:47:00;;;;;;;196.17;62.00;;;;;;;;;;5051233;28;20401;-51
2023/08/04 10:49:26;;;;;;;196.20;60.33;;;;;;;;;;5051098;28;20405;-52
2023/08/04 10:51:52;;;;;;;198.97;63.70;;;;;;;;;;5051059;28;20433;-51
2023/08/04 10:54:19;;;;;;;195.20;59.77;;;;;;;;;;5050558;28;20429;-51
2023/08/04 10:56:48;;;;;;;196.47;61.23;;;;;;;;;;5053544;28;20424;-51
2023/08/04 10:59:14;;;;;;;197.33;63.03;;;;;;;;;;5054338;28;20456;-51
2023/08/04 11:01:40;;;;;;;196.33;60.97;;;;;;;;;;5050950;28;20531;-51
2023/08/04 11:04:06;;;;;;;202.87;67.97;;;;;;;;;;5048046;28;20417;-51
2023/08/04 11:06:32;;;;;;;199.23;64.57;;;;;;;;;;5059198;28;20499;-50
2023/08/04 11:08:58;;;;;;;197.07;61.57;;;;;;;;;;5050947;28;20502;-49
2023/08/04 11:11:24;;;;;;;196.33;62.73;;;;;;;;;;5047886;28;20441;-49
2023/08/04 11:13:50;;;;;;;198.37;63.57;;;;;;;;;;5054153;28;20492;-49
2023/08/04 11:16:16;;;;;;;198.00;63.27;;;;;;;;;;5051433;28;20397;-52
2023/08/04 11:18:43;;;;;;;198.40;63.90;;;;;;;;;;5054580;28;20468;-51
2023/08/04 11:21:09;;;;;;;196.27;61.50;;;;;;;;;;5054461;28;20547;-50
2023/08/04 11:23:35;;;;;;;198.63;64.27;;;;;;;;;;5054203;28;20175;-51
2023/08/04 11:26:02;;;;;;;204.03;65.03;;;;;;;;;;5053599;28;20402;-53
2023/08/04 11:28:29;;;;;;;196.30;62.03;;;;;;;;;;5054929;28;20469;-51
2023/08/04 11:31:09;;;;;;;198.57;64.10;;;;;;;;;;5052445;28;20480;-50
2023/08/04 11:33:35;;;;;;;197.25;60.80;;;;;;;;;;5052801;28;20863;-50
2023/08/04 11:36:03;;;;;;;194.88;60.05;;;;;;;;;;5034548;28;20168;-50
2023/08/04 11:38:30;;;;;;;198.87;64.53;;;;;;;;;;5053320;28;20198;-50
2023/08/04 11:41:00;;;;;;;196.57;62.20;;;;;;;;;;5046620;28;20950;-50
2023/08/04 11:43:26;;;;;;;196.70;61.05;;;;;;;;;;5047849;28;20470;-50
2023/08/04 11:45:55;;;;;;;198.27;63.63;;;;;;;;;;5054761;28;20295;-48
2023/08/04 11:48:21;;;;;;;199.67;65.63;;;;;;;;;;5054154;28;20936;-49
2023/08/04 11:50:48;;;;;;;201.30;67.30;;;;;;;;;;5051562;28;20559;-50
2023/08/04 11:53:16;;;;;;;199.90;66.03;;;;;;;;;;5053736;28;20483;-49
2023/08/04 11:55:58;;;;;;;197.43;61.77;;;;;;;;;;5053883;28;20396;-49
2023/08/04 11:58:30;;;;;;;204.13;67.27;;;;;;;;;;5053443;28;20464;-49
2023/08/04 12:00:57;;;;;;;205.50;70.13;;;;;;;;;;5050691;28;20441;-49
2023/08/04 12:03:24;;;;;;;202.80;67.53;;;;;;;;;;5053452;28;20478;-50
2023/08/04 12:05:51;;;;;;;200.20;66.27;;;;;;;;;;5053626;28;20948;-49
2023/08/04 12:08:17;;;;;;;203.60;70.80;;;;;;;;;;5053357;28;20834;-50
2023/08/04 12:10:45;;;;;;;208.03;76.70;;;;;;;;;;5051538;28;20433;-50
2023/08/04 12:13:29;;;;;;;201.57;70.33;;;;;;;;;;5051255;28;20433;-49
2023/08/04 12:15:56;;;;;;;201.27;66.83;;;;;;;;;;5053283;28;20459;-51
2023/08/04 12:18:23;;;;;;;199.07;64.50;;;;;;;;;;5053601;28;20456;-49
2023/08/04 12:20:49;;;;;;;204.57;71.57;;;;;;;;;;5050290;28;20816;-49
2023/08/04 12:23:15;;;;;;;196.27;61.77;;;;;;;;;;5051902;28;20467;-49
2023/08/04 12:25:41;;;;;;;199.73;66.97;;;;;;;;;;5053349;28;20408;-49
2023/08/04 12:28:07;;;;;;;201.87;70.23;;;;;;;;;;5053269;28;20944;-49
2023/08/04 12:30:33;;;;;;;208.13;82.50;;;;;;;;;;5051591;28;20971;-53
2023/08/04 12:32:59;;;;;;;201.90;67.10;;;;;;;;;;5047660;28;20420;-49
2023/08/04 12:35:25;;;;;;;202.83;69.43;;;;;;;;;;5052847;28;20421;-49
2023/08/04 12:37:51;;;;;;;202.70;69.50;;;;;;;;;;5051433;28;20522;-51
2023/08/04 12:40:17;;;;;;;202.23;68.17;;;;;;;;;;5051714;28;20425;-52
2023/08/04 12:42:45;;;;;;;201.03;68.23;;;;;;;;;;5034692;28;20426;-49
2023/08/04 12:45:11;;;;;;;204.70;73.53;;;;;;;;;;5047407;28;20417;-50
2023/08/04 12:47:36;;;;;;;203.43;72.97;;;;;;;;;;5052986;28;20416;-48
2023/08/04 12:50:03;;;;;;;202.57;71.50;;;;;;;;;;5052527;28;20457;-50
2023/08/04 12:52:30;;;;;;;202.47;73.53;;;;;;;;;;5044947;28;20436;-51
2023/08/04 12:54:56;;;;;;;204.70;73.27;;;;;;;;;;5052373;28;20429;-52
2023/08/04 12:57:22;;;;;;;205.00;74.17;;;;;;;;;;5032780;28;20980;-49
2023/08/04 12:59:48;;;;;;;209.03;77.37;;;;;;;;;;5051940;28;20405;-49
2023/08/04 13:02:15;;;;;;;201.30;68.40;;;;;;;;;;5039133;28;20418;-51
2023/08/04 13:04:41;;;;;;;203.13;69.93;;;;;;;;;;5046069;28;20410;-49
2023/08/04 13:07:07;;;;;;;202.30;68.70;;;;;;;;;;5049205;28;20409;-50
2023/08/04 13:09:33;;;;;;;204.77;71.83;;;;;;;;;;5052210;28;20836;-49
2023/08/04 13:11:58;;;;;;;201.60;68.17;;;;;;;;;;5051405;28;20413;-49
2023/08/04 13:14:24;;;;;;;205.57;74.43;;;;;;;;;;5051832;28;20409;-51
2023/08/04 13:16:50;;;;;;;200.53;65.90;;;;;;;;;;5052646;28;20409;-49
2023/08/04 13:19:16;;;;;;;201.63;67.07;;;;;;;;;;5050474;28;20546;-48
2023/08/04 13:21:42;;;;;;;204.03;71.53;;;;;;;;;;5051435;28;20790;-49
2023/08/04 13:24:11;;;;;;;203.77;72.10;;;;;;;;;;5051262;28;20976;-49
2023/08/04 13:26:37;;;;;;;200.00;67.77;;;;;;;;;;5052664;28;20462;-51
2023/08/04 13:29:03;;;;;;;201.50;68.57;;;;;;;;;;5051443;28;20973;-48
2023/08/04 13:31:29;;;;;;;202.50;69.97;;;;;;;;;;5050302;28;20434;-48
2023/08/04 13:33:55;;;;;;;200.00;65.80;;;;;;;;;;5052087;28;20410;-48
2023/08/04 13:36:21;;;;;;;197.77;64.13;;;;;;;;;;5051932;28;20496;-48
2023/08/04 13:38:49;;;;;;;199.57;67.17;;;;;;;;;;5047257;28;20461;-49
2023/08/04 13:41:16;;;;;;;200.73;68.90;;;;;;;;;;5051619;28;20433;-49
2023/08/04 13:43:44;;;;;;;201.07;69.17;;;;;;;;;;5051812;28;20413;-49
2023/08/04 13:46:11;;;;;;;201.33;68.30;;;;;;;;;;5050327;28;20398;-49
2023/08/04 13:48:37;;;;;;;198.57;63.33;;;;;;;;;;5048890;28;20409;-47
2023/08/04 13:51:03;;;;;;;199.57;65.40;;;;;;;;;;5051438;28;20458;-48
2023/08/04 13:53:29;;;;;;;199.47;65.53;;;;;;;;;;5051670;28;20474;-47
2023/08/04 13:55:55;;;;;;;200.17;65.47;;;;;;;;;;5051665;28;20405;-48
2023/08/04 13:58:22;;;;;;;199.53;63.60;;;;;;;;;;5051515;28;20464;-48
2023/08/04 14:01:00;;;;;;;197.93;63.03;;;;;;;;;;5049937;28;20436;-48